Time;durP1;ratioP1;P1;durP2;ratioP2;P2;SDS_P1;SDS_P2;PMS_P1;PMS_P2;Temp;Humidity;BMP_temperature;BMP_pressure;BME280_temperature;BME280_humidity;BME280_pressure;Samples;Min_cycle;Max_cycle;Signal;HPM_P1;HPM_P2
2022/05/02 00:00:16;;;;;;;7.28;4.13;;;;;;;8.62;89.39;93185.75;5032215;28;20052;-82
2022/05/02 00:02:43;;;;;;;8.38;5.05;;;;;;;8.54;89.09;93172.19;5032160;28;20568;-83
2022/05/02 00:05:10;;;;;;;9.27;4.63;;;;;;;8.59;89.70;93165.66;5033113;28;20370;-83
2022/05/02 00:07:37;;;;;;;7.55;4.45;;;;;;;8.44;89.49;93130.78;5033009;28;20084;-83
2022/05/02 00:10:07;;;;;;;6.20;4.30;;;;;;;8.58;89.47;93151.28;5032587;28;20049;-83
2022/05/02 00:12:35;;;;;;;5.75;4.25;;;;;;;8.50;89.12;93124.88;5032157;28;20048;-83
2022/05/02 00:15:02;;;;;;;7.88;3.85;;;;;;;8.66;88.59;93140.84;5031986;28;20053;-83
2022/05/02 00:20:10;;;;;;;8.60;4.50;;;;;;;8.48;88.85;93111.47;5031506;28;20078;-84
2022/05/02 00:22:37;;;;;;;8.77;5.13;;;;;;;8.61;87.85;93117.63;5031895;28;20042;-84
2022/05/02 00:25:06;;;;;;;8.13;4.95;;;;;;;8.62;87.72;93109.75;5031831;28;20050;-83
2022/05/02 00:27:33;;;;;;;8.48;5.05;;;;;;;8.65;88.53;93119.56;5032009;28;20041;-83
2022/05/02 00:30:00;;;;;;;6.45;4.60;;;;;;;8.82;88.74;93137.06;5032199;28;20400;-83
2022/05/02 00:32:27;;;;;;;7.93;4.85;;;;;;;8.40;90.42;93096.34;5032244;28;20056;-84
2022/05/02 00:34:54;;;;;;;8.57;4.75;;;;;;;8.81;90.92;93159.31;5031689;28;20496;-84
2022/05/02 00:37:21;;;;;;;8.02;5.20;;;;;;;8.78;90.58;93152.06;5031833;28;20053;-84
2022/05/02 00:39:48;;;;;;;7.40;5.07;;;;;;;8.93;90.99;93161.28;5031452;28;20049;-84
2022/05/02 00:42:18;;;;;;;7.50;4.43;;;;;;;8.91;91.50;93160.69;5031043;28;20117;-84
2022/05/02 00:44:48;;;;;;;11.32;5.00;;;;;;;8.61;93.52;93154.22;5030688;28;20595;-84
2022/05/02 00:47:15;;;;;;;7.10;4.05;;;;;;;8.15;93.76;93094.41;5029292;28;20041;-84
2022/05/02 00:49:43;;;;;;;8.73;4.47;;;;;;;8.54;95.03;93144.00;5030865;28;20494;-84
2022/05/02 00:52:10;;;;;;;7.38;4.28;;;;;;;8.36;96.29;93142.00;5028151;28;20038;-83
2022/05/02 00:54:37;;;;;;;7.63;4.38;;;;;;;8.23;97.00;93137.69;5031320;28;20069;-84
2022/05/02 00:57:07;;;;;;;5.85;4.20;;;;;;;7.78;97.23;93068.41;5030627;28;20503;-84
2022/05/02 00:59:37;;;;;;;8.45;4.70;;;;;;;8.28;97.07;93124.28;5028612;28;20065;-84
2022/05/02 01:02:06;;;;;;;6.47;4.60;;;;;;;7.86;95.65;93045.97;5030800;28;20033;-84
2022/05/02 01:04:33;;;;;;;8.25;5.00;;;;;;;8.46;96.14;93120.38;5028647;28;20393;-84
2022/05/02 01:07:10;;;;;;;6.68;4.68;;;;;;;8.18;96.50;93080.41;5042034;28;20040;-84
2022/05/02 01:09:38;;;;;;;7.15;5.25;;;;;;;8.47;96.86;93129.63;5031997;28;20664;-83
2022/05/02 01:12:08;;;;;;;5.47;4.43;;;;;;;8.02;97.07;93067.03;5046208;28;20430;-83
2022/05/02 01:14:36;;;;;;;6.45;4.32;;;;;;;8.41;96.65;93124.28;5031697;28;20045;-84
2022/05/02 01:17:04;;;;;;;6.10;3.80;;;;;;;7.90;95.21;93043.81;5030180;28;20045;-84
2022/05/02 01:19:31;;;;;;;6.15;4.00;;;;;;;8.41;95.06;93098.69;5043949;28;20124;-84
2022/05/02 01:21:59;;;;;;;7.03;4.35;;;;;;;8.74;94.41;93132.94;5030727;28;20042;-84
2022/05/02 01:24:37;;;;;;;6.07;4.30;;;;;;;8.71;93.51;93106.94;5030353;28;20037;-84
2022/05/02 01:27:06;;;;;;;20.48;12.93;;;;;;;8.87;94.01;93126.22;5028944;28;20069;-83
2022/05/02 01:29:34;;;;;;;7.82;5.65;;;;;;;8.80;95.46;93124.47;5029751;28;20041;-84
2022/05/02 01:32:02;;;;;;;6.85;4.32;;;;;;;8.74;97.24;93120.13;5030210;28;20038;-84
2022/05/02 01:34:29;;;;;;;6.75;4.70;;;;;;;8.76;95.92;93110.50;5030171;28;20385;-83
2022/05/02 01:36:56;;;;;;;7.32;4.25;;;;;;;8.53;93.76;93063.06;5030474;28;20381;-83
2022/05/02 01:39:24;;;;;;;6.55;4.45;;;;;;;8.90;92.62;93107.91;5030265;28;20046;-83
2022/05/02 01:41:51;;;;;;;6.20;3.95;;;;;;;8.81;92.32;93081.72;5030711;28;20053;-83
2022/05/02 01:44:18;;;;;;;6.60;4.70;;;;;;;8.66;92.24;93054.56;5030243;28;20049;-83
2022/05/02 01:46:45;;;;;;;6.60;4.75;;;;;;;8.57;92.58;93053.22;5030380;28;20119;-84
2022/05/02 01:49:12;;;;;;;7.88;4.63;;;;;;;8.88;92.98;93081.72;5030221;28;20057;-84
2022/05/02 01:51:40;;;;;;;8.90;4.60;;;;;;;8.85;93.96;93082.09;5030398;28;20041;-83
2022/05/02 01:54:06;;;;;;;8.05;5.50;;;;;;;8.95;94.20;93103.72;5030232;28;20397;-83
2022/05/02 01:56:35;;;;;;;6.57;4.60;;;;;;;8.84;93.39;93090.78;5030032;28;20111;-84
2022/05/02 01:59:02;;;;;;;5.38;4.07;;;;;;;8.98;93.25;93099.97;5029978;28;20579;-83
2022/05/02 02:01:29;;;;;;;6.43;4.20;;;;;;;9.02;93.01;93096.03;5030037;28;20056;-83
2022/05/02 02:03:55;;;;;;;4.90;4.00;;;;;;;8.85;93.12;93064.16;5030043;28;20041;-83
2022/05/02 02:06:22;;;;;;;6.18;4.10;;;;;;;9.06;93.95;93094.63;5030044;28;20046;-83
2022/05/02 02:08:49;;;;;;;;;;;;;;;9.02;95.97;93090.91;5030582;28;20048;-83
2022/05/02 02:11:16;;;;;;;6.88;4.10;;;;;;;8.68;95.55;93041.56;5029773;28;19916;-83
2022/05/02 02:13:46;;;;;;;6.38;4.13;;;;;;;8.92;94.79;93078.53;5029954;28;20047;-83
2022/05/02 02:16:13;;;;;;;6.13;4.25;;;;;;;8.65;93.97;93029.94;5030361;28;20428;-83
2022/05/02 02:18:41;;;;;;;6.80;4.32;;;;;;;8.57;94.50;93027.63;5030072;28;20042;-83
2022/05/02 02:21:10;;;;;;;6.65;3.90;;;;;;;8.76;94.74;93049.03;5030451;28;20046;-84
2022/05/02 02:23:37;;;;;;;5.63;4.28;;;;;;;8.81;95.40;93063.78;5030471;28;20057;-83
2022/05/02 02:26:06;;;;;;;7.80;4.85;;;;;;;8.63;96.41;93049.84;5029734;28;20476;-84
2022/05/02 02:28:33;;;;;;;5.43;3.95;;;;;;;8.77;95.82;93070.28;5029927;28;20049;-84
2022/05/02 02:31:01;;;;;;;6.45;4.43;;;;;;;8.62;95.49;93043.16;5030042;28;20041;-83
2022/05/02 02:33:28;;;;;;;6.95;5.07;;;;;;;8.72;94.61;93052.97;5029938;28;20053;-83
2022/05/02 02:35:55;;;;;;;5.93;4.70;;;;;;;8.58;95.21;93038.63;5030286;28;20049;-83
2022/05/02 02:38:22;;;;;;;9.10;4.82;;;;;;;8.51;95.95;93046.28;5045943;28;20085;-83
2022/05/02 02:40:49;;;;;;;5.82;4.82;;;;;;;8.40;94.81;93020.34;5035830;28;20045;-84
2022/05/02 02:43:16;;;;;;;6.63;4.47;;;;;;;7.81;95.27;92942.69;5029526;28;20038;-84
2022/05/02 02:45:43;;;;;;;7.13;5.07;;;;;;;8.12;95.78;92998.34;5029775;28;20452;-84
2022/05/02 02:48:11;;;;;;;7.82;5.03;;;;;;;8.08;96.97;93007.41;5030278;28;20041;-84
2022/05/02 02:50:38;;;;;;;8.60;5.50;;;;;;;7.69;96.10;92945.84;5029865;28;20053;-84
2022/05/02 02:53:05;;;;;;;7.88;4.70;;;;;;;8.19;96.67;93035.94;5029263;28;20049;-84
2022/05/02 02:55:32;;;;;;;8.30;5.72;;;;;;;7.93;96.54;92994.03;5029289;28;20052;-84
2022/05/02 02:57:59;;;;;;;8.57;5.68;;;;;;;8.22;96.69;93048.31;5028972;28;20049;-83
2022/05/02 03:00:26;;;;;;;9.10;5.07;;;;;;;7.55;97.44;92957.84;5029440;28;20457;-83
2022/05/02 03:02:53;;;;;;;12.10;7.13;;;;;;;7.91;98.92;93027.47;5029608;28;20388;-84
2022/05/02 03:08:06;;;;;;;10.63;6.82;;;;;;;7.86;98.78;93040.06;5029261;28;21123;-84
2022/05/02 03:10:33;;;;;;;10.05;5.68;;;;;;;7.74;99.25;93021.97;5029248;28;20037;-85
2022/05/02 03:13:00;;;;;;;12.00;5.25;;;;;;;7.79;99.14;93052.06;5029349;28;20049;-85
2022/05/02 03:15:27;;;;;;;8.60;4.78;;;;;;;7.31;98.70;92987.34;5029594;28;20045;-85
2022/05/02 03:17:54;;;;;;;7.60;5.05;;;;;;;7.44;98.70;93007.00;5029826;28;20037;-85
2022/05/02 03:20:22;;;;;;;7.88;4.65;;;;;;;7.42;98.79;93017.44;5029694;28;20052;-85
2022/05/02 03:22:49;;;;;;;6.70;4.95;;;;;;;6.90;98.55;92948.19;5029229;28;20508;-85
2022/05/02 03:25:16;;;;;;;7.65;4.95;;;;;;;7.40;99.44;93037.28;5029252;28;20049;-85
2022/05/02 03:27:43;;;;;;;5.72;4.28;;;;;;;7.40;99.73;93046.72;5029051;28;20052;-84
2022/05/02 03:30:10;;;;;;;7.85;4.57;;;;;;;7.20;100.00;93029.56;5029526;28;20485;-84
2022/05/02 03:32:37;;;;;;;7.57;5.45;;;;;;;6.93;99.81;92989.44;5029618;28;20048;-84
2022/05/02 03:35:05;;;;;;;7.85;4.85;;;;;;;6.72;100.00;92948.72;5029134;28;20056;-85
2022/05/02 03:37:33;;;;;;;8.75;4.72;;;;;;;7.34;99.50;93043.16;5029120;28;20077;-85
2022/05/02 03:40:00;;;;;;;10.02;5.00;;;;;;;7.30;99.32;93042.75;5028861;28;20136;-85
2022/05/02 03:42:27;;;;;;;8.00;5.75;;;;;;;6.81;99.90;92975.66;5029584;28;20049;-85
2022/05/02 03:44:54;;;;;;;16.33;7.20;;;;;;;6.55;99.27;92943.94;5029772;28;20045;-85
2022/05/02 03:47:21;;;;;;;9.68;6.22;;;;;;;6.84;99.02;92982.91;5029775;28;20045;-85
2022/05/02 03:49:48;;;;;;;8.05;5.10;;;;;;;7.34;99.07;93049.06;5028907;28;20049;-85
2022/05/02 03:52:15;;;;;;;11.48;6.15;;;;;;;6.77;99.02;92954.03;5029178;28;20041;-85
2022/05/02 03:54:43;;;;;;;13.20;6.95;;;;;;;7.11;99.54;93026.41;5032085;28;20046;-85
2022/05/02 03:57:10;;;;;;;11.27;6.10;;;;;;;7.05;100.00;93011.84;5032475;28;20051;-85
2022/05/02 03:59:37;;;;;;;8.32;5.82;;;;;;;7.29;100.00;93048.06;5029773;28;20057;-85
2022/05/02 04:02:04;;;;;;;10.60;6.40;;;;;;;7.28;100.00;93054.97;5032385;28;20097;-83
2022/05/02 04:04:31;;;;;;;11.00;6.35;;;;;;;7.28;100.00;93049.03;5033096;28;20049;-83
2022/05/02 04:06:57;;;;;;;14.55;7.90;;;;;;;7.34;100.00;93049.06;5033369;28;20045;-82
2022/05/02 04:09:24;;;;;;;9.40;6.43;;;;;;;7.26;100.00;93033.91;5032554;28;20100;-83
2022/05/02 04:11:52;;;;;;;10.02;6.65;;;;;;;7.24;100.00;93028.22;5032946;28;20045;-83
2022/05/02 04:14:19;;;;;;;10.93;6.68;;;;;;;7.43;100.00;93051.44;5032539;28;20072;-83
2022/05/02 04:16:46;;;;;;;10.25;6.55;;;;;;;7.05;100.00;93010.06;5032178;28;20138;-82
2022/05/02 04:19:13;;;;;;;13.82;7.60;;;;;;;7.34;100.00;93043.97;5032183;28;20050;-82
2022/05/02 04:21:40;;;;;;;14.25;7.00;;;;;;;7.51;100.00;93043.59;5032355;28;20136;-83
2022/05/02 04:24:08;;;;;;;15.18;7.25;;;;;;;7.55;100.00;93031.22;5032167;28;20045;-83
2022/05/02 04:26:34;;;;;;;14.43;7.70;;;;;;;7.82;100.00;93055.00;5031859;28;20565;-84
2022/05/02 04:29:03;;;;;;;14.82;7.30;;;;;;;7.76;100.00;93025.13;5031971;28;20038;-84
2022/05/02 04:31:30;;;;;;;20.20;9.85;;;;;;;8.14;99.01;93062.09;5031875;28;20042;-84
2022/05/02 04:33:58;;;;;;;14.70;7.75;;;;;;;8.12;97.53;93041.84;5031756;28;20489;-84
2022/05/02 04:36:25;;;;;;;16.83;8.82;;;;;;;8.00;96.36;93007.59;5031467;28;20255;-85
2022/05/02 04:38:52;;;;;;;17.40;9.80;;;;;;;8.54;95.39;93058.72;5031620;28;20048;-85
2022/05/02 04:41:19;;;;;;;21.20;9.13;;;;;;;8.14;94.90;92972.53;5032263;28;20065;-85
2022/05/02 04:43:51;;;;;;;16.27;8.68;;;;;;;8.09;94.34;92955.25;5031748;28;20052;-85
2022/05/02 04:46:19;;;;;;;15.88;9.13;;;;;;;8.70;93.80;93026.78;5031743;28;20133;-85
2022/05/02 04:48:46;;;;;;;16.10;9.00;;;;;;;8.79;93.13;93010.19;5031902;28;20481;-85
2022/05/02 04:51:13;;;;;;;14.52;8.75;;;;;;;9.10;92.01;93048.91;5032065;28;20495;-85
2022/05/02 04:53:40;;;;;;;16.73;9.27;;;;;;;9.37;91.03;93061.59;5027262;28;20493;-85
2022/05/02 04:56:07;;;;;;;15.52;10.10;;;;;;;9.47;91.32;93045.75;5031773;28;20136;-84
2022/05/02 04:58:34;;;;;;;17.17;9.80;;;;;;;9.21;94.48;93027.75;5031135;28;20045;-85
2022/05/02 05:01:01;;;;;;;15.15;9.05;;;;;;;9.36;93.94;93035.16;5031176;28;20132;-85
2022/05/02 05:03:29;;;;;;;14.63;8.90;;;;;;;9.59;95.75;93040.75;5031366;28;20124;-83
2022/05/02 05:05:56;;;;;;;13.68;8.23;;;;;;;9.65;97.74;93045.03;5030282;28;20041;-83
2022/05/02 05:08:23;;;;;;;10.18;7.28;;;;;;;9.71;98.05;93033.94;5030816;28;20049;-85
2022/05/02 05:11:03;;;;;;;10.32;7.43;;;;;;;9.70;98.72;93011.88;5031109;28;20374;-85
2022/05/02 05:13:39;;;;;;;10.13;8.10;;;;;;;9.88;98.03;93020.63;5031268;28;20389;-86
2022/05/02 05:16:36;;;;;;;12.90;7.78;;;;;;;9.48;97.32;92949.88;5031199;28;20037;-85
2022/05/02 05:19:22;;;;;;;9.43;7.70;;;;;;;9.82;100.00;93008.63;5027993;28;20042;-85
2022/05/02 05:22:00;;;;;;;10.48;7.43;;;;;;;9.61;98.73;92952.38;5031107;28;20485;-87
2022/05/02 05:25:08;;;;;;;10.65;7.15;;;;;;;10.14;99.07;93027.28;5030460;28;20095;-87
2022/05/02 05:27:59;;;;;;;10.95;7.75;;;;;;;9.88;99.52;92966.75;5031145;28;20448;-85
2022/05/02 05:30:28;;;;;;;9.75;7.75;;;;;;;10.45;98.57;93014.59;5048585;28;20041;-85
2022/05/02 05:33:11;;;;;;;9.40;7.38;;;;;;;10.35;97.02;92961.16;5037365;28;20115;-85
2022/05/02 05:35:52;;;;;;;9.57;6.85;;;;;;;10.23;95.99;92925.13;5031497;28;20057;-85
2022/05/02 05:38:27;;;;;;;9.13;7.40;;;;;;;10.52;96.35;92951.09;5013873;28;20046;-85
2022/05/02 05:41:04;;;;;;;11.15;7.25;;;;;;;10.87;94.61;92947.13;5010654;28;20382;-85
2022/05/02 05:43:47;;;;;;;8.65;6.95;;;;;;;11.19;93.00;93018.91;5010589;28;20046;-86
2022/05/02 05:46:43;;;;;;;10.35;7.43;;;;;;;10.99;92.41;92985.75;5010919;28;20037;-85
2022/05/02 05:49:18;;;;;;;10.45;7.35;;;;;;;11.35;92.58;93003.88;5010120;28;20050;-84
2022/05/02 05:51:49;;;;;;;10.95;7.47;;;;;;;11.49;89.34;92978.75;5010797;28;20449;-84
2022/05/02 05:54:39;;;;;;;12.90;8.75;;;;;;;12.24;87.30;93007.47;5009822;28;20042;-83
2022/05/02 05:57:19;;;;;;;14.05;7.78;;;;;;;12.42;84.17;92946.53;5027620;28;20141;-84
2022/05/02 06:00:03;;;;;;;10.55;7.40;;;;;;;13.00;80.98;92971.59;5009053;28;20050;-84
2022/05/02 06:02:40;;;;;;;11.85;7.15;;;;;;;13.34;78.49;92979.41;5010864;28;20085;-84
2022/05/02 06:05:08;;;;;;;12.27;7.63;;;;;;;13.15;75.95;92930.59;5010097;28;20128;-84
2022/05/02 06:07:36;;;;;;;11.40;7.88;;;;;;;14.01;74.35;93001.13;5010472;28;20054;-84
2022/05/02 06:10:05;;;;;;;15.32;7.82;;;;;;;14.18;72.11;92984.84;5010112;28;20504;-85
2022/05/02 06:12:32;;;;;;;13.73;8.07;;;;;;;14.26;71.77;92997.34;5010028;28;20050;-84
2022/05/02 06:20:33;;;;;;;13.05;7.43;;;;;;;15.03;66.73;92926.13;5010280;28;20057;-85
2022/05/02 06:23:02;;;;;;;9.70;5.60;;;;;;;15.31;62.00;92926.91;5009941;28;20048;-85
2022/05/02 06:25:30;;;;;;;15.63;6.50;;;;;;;15.47;64.52;92961.47;5010427;28;20046;-84
2022/05/02 06:28:02;;;;;;;11.73;6.65;;;;;;;15.96;62.98;92978.69;5010624;28;20046;-84
2022/05/02 06:30:31;;;;;;;9.20;6.10;;;;;;;16.23;63.04;92951.94;5010650;28;20042;-84
2022/05/02 06:33:00;;;;;;;10.07;5.50;;;;;;;16.08;60.55;92889.66;5010240;28;20049;-84
2022/05/02 06:35:33;;;;;;;11.52;5.65;;;;;;;16.88;59.22;92953.50;5010873;28;20046;-84
2022/05/02 06:38:07;;;;;;;10.25;5.47;;;;;;;17.24;57.86;92958.03;5009549;28;20136;-84
2022/05/02 06:40:42;;;;;;;8.85;4.78;;;;;;;17.22;57.01;92901.16;5009794;28;20508;-84
2022/05/02 06:43:18;;;;;;;8.63;4.45;;;;;;;17.27;55.85;92860.69;5009672;28;20038;-84
2022/05/02 06:45:53;;;;;;;8.38;5.20;;;;;;;17.78;54.77;92893.66;5009565;28;20046;-84
2022/05/02 06:48:29;;;;;;;8.20;4.80;;;;;;;18.15;53.28;92936.72;5009914;28;20042;-85
2022/05/02 06:51:01;;;;;;;7.15;4.80;;;;;;;17.80;54.95;92888.94;5009889;28;20078;-85
2022/05/02 06:53:52;;;;;;;7.45;4.70;;;;;;;18.50;53.39;92946.50;5009873;28;20050;-85
2022/05/02 06:56:25;;;;;;;8.32;4.50;;;;;;;18.06;50.41;92868.16;5009785;28;20448;-85
2022/05/02 06:59:03;;;;;;;7.90;4.40;;;;;;;18.71;52.17;92947.25;5009216;28;20485;-84
2022/05/02 07:01:38;;;;;;;5.57;3.95;;;;;;;18.58;51.47;92888.75;5009690;28;20046;-85
2022/05/02 07:04:40;;;;;;;5.30;3.78;;;;;;;18.87;49.63;92876.88;5009294;28;20056;-85
2022/05/02 07:07:16;;;;;;;7.20;4.82;;;;;;;19.44;48.94;92944.25;5009940;28;20065;-86
2022/05/02 07:09:46;;;;;;;6.22;4.18;;;;;;;19.59;47.93;92928.50;5009739;28;20056;-85
2022/05/02 07:12:18;;;;;;;6.82;4.25;;;;;;;19.15;47.34;92828.59;5010141;28;20058;-85
2022/05/02 07:15:05;;;;;;;5.90;3.83;;;;;;;19.97;46.03;92925.38;5009569;28;20048;-87
2022/05/02 07:17:45;;;;;;;6.57;4.18;;;;;;;19.59;44.04;92919.94;5006353;28;20042;-86
2022/05/02 07:20:18;;;;;;;6.25;3.90;;;;;;;19.45;45.25;92857.25;5007348;28;20104;-86
2022/05/02 07:22:50;;;;;;;5.30;3.72;;;;;;;18.05;47.22;92861.34;5009537;28;20123;-86
2022/05/02 07:25:21;;;;;;;5.50;3.90;;;;;;;18.93;45.68;92907.06;5009176;28;20050;-84
2022/05/02 07:28:08;;;;;;;5.97;4.07;;;;;;;18.04;47.14;92865.00;5010687;28;20116;-83
2022/05/02 07:30:39;;;;;;;7.07;3.40;;;;;;;18.72;47.55;92899.34;5013357;28;20042;-83
2022/05/02 07:33:10;;;;;;;5.88;3.60;;;;;;;18.98;47.19;92896.59;5013083;28;20124;-84
2022/05/02 07:35:38;;;;;;;4.97;3.67;;;;;;;19.04;44.91;92911.19;5012920;28;20053;-83
2022/05/02 07:38:08;;;;;;;16.35;9.73;;;;;;;17.63;45.50;92894.41;5012708;28;20103;-83
2022/05/02 07:41:22;;;;;;;4.60;3.60;;;;;;;17.53;44.83;92897.81;5012874;28;20508;-83
2022/05/02 07:43:26;;;;;;;16.48;10.38;;;;;;;16.50;46.42;92885.41;5012609;28;20041;-82
2022/05/02 07:45:53;;;;;;;6.18;4.50;;;;;;;16.76;47.05;92895.88;5013029;28;20053;-82
2022/05/02 07:48:20;;;;;;;6.45;3.95;;;;;;;17.11;47.83;92917.78;5012579;28;20041;-82
2022/05/02 07:50:47;;;;;;;6.40;3.60;;;;;;;16.37;49.22;92917.78;5012895;28;20531;-82
2022/05/02 07:53:14;;;;;;;6.15;2.80;;;;;;;17.00;45.55;92926.53;5012930;28;20046;-82
2022/05/02 07:55:49;;;;;;;5.80;3.15;;;;;;;17.30;46.05;92914.66;5012869;28;20366;-83
2022/05/02 07:58:17;;;;;;;5.18;3.42;;;;;;;17.94;46.36;92922.97;5012510;28;20645;-83
2022/05/02 08:00:44;;;;;;;3.63;2.38;;;;;;;18.45;45.34;92934.31;5013134;28;20050;-82
2022/05/02 08:03:12;;;;;;;7.88;3.60;;;;;;;18.46;42.04;92906.50;5012857;28;20046;-82
2022/05/02 08:05:45;;;;;;;5.35;2.97;;;;;;;18.82;43.82;92925.31;5012770;28;20044;-83
2022/05/02 08:08:18;;;;;;;4.70;3.33;;;;;;;19.03;44.11;92935.63;5012462;28;20067;-82
2022/05/02 08:11:05;;;;;;;8.05;3.72;;;;;;;19.08;45.82;92927.03;5012481;28;20124;-83
2022/05/02 08:13:48;;;;;;;5.03;2.90;;;;;;;17.79;46.38;92921.19;5012011;28;20049;-83
2022/05/02 08:16:23;;;;;;;3.33;2.83;;;;;;;17.58;42.78;92899.63;5012958;28;20038;-83
2022/05/02 08:19:03;;;;;;;4.07;2.63;;;;;;;16.72;44.86;92915.56;5013878;28;20046;-83
2022/05/02 08:21:34;;;;;;;3.80;2.88;;;;;;;16.33;43.34;92919.31;5012083;28;20093;-84
2022/05/02 08:27:19;;;;;;;5.43;2.53;;;;;;;15.81;43.80;92916.41;5011891;28;20632;-83
2022/05/02 08:30:02;;;;;;;5.35;3.03;;;;;;;15.08;46.01;92900.31;5012076;28;20053;-83
2022/05/02 08:32:36;;;;;;;11.77;5.20;;;;;;;15.55;47.07;92885.19;5011253;28;20049;-83
2022/05/02 08:35:07;;;;;;;5.63;3.72;;;;;;;14.92;48.71;92922.66;5009565;28;20545;-82
2022/05/02 08:37:53;;;;;;;7.82;5.05;;;;;;;15.03;48.33;92921.75;5013797;28;20046;-82
2022/05/02 08:40:47;;;;;;;4.35;3.47;;;;;;;14.87;47.02;92876.06;5012623;28;20039;-83
2022/05/02 08:43:57;;;;;;;4.17;3.00;;;;;;;15.35;49.55;92905.47;5013566;28;20048;-83
2022/05/02 08:47:09;;;;;;;7.47;4.50;;;;;;;15.42;49.68;92827.59;5011682;28;20053;-83
2022/05/02 08:50:17;;;;;;;9.98;6.20;;;;;;;15.05;46.32;92825.81;4977077;28;20076;-83
2022/05/02 08:53:19;;;;;;;12.20;8.77;;;;;;;14.93;48.52;92875.09;5014262;28;20053;-83
2022/05/02 08:56:25;;;;;;;5.85;3.55;;;;;;;15.03;47.14;92841.56;5014688;28;20412;-83
2022/05/02 08:59:33;;;;;;;4.68;3.13;;;;;;;15.06;48.53;92859.19;5017820;28;20076;-83
2022/05/02 09:02:52;;;;;;;4.00;2.72;;;;;;;14.65;47.05;92902.72;5013985;28;20049;-83
2022/05/02 09:05:40;;;;;;;5.22;2.90;;;;;;;15.03;47.23;92887.31;4991864;28;20045;-83
2022/05/02 09:08:49;;;;;;;4.80;2.88;;;;;;;14.36;44.63;92828.78;5010726;28;20255;-83
2022/05/02 09:11:34;;;;;;;3.22;2.40;;;;;;;14.67;43.81;92869.63;5011167;28;20050;-84
2022/05/02 09:14:46;;;;;;;4.22;1.83;;;;;;;14.60;44.27;92872.44;5011380;28;20048;-83
2022/05/02 09:18:00;;;;;;;3.42;2.30;;;;;;;15.14;43.35;92876.03;4991700;28;20433;-83
2022/05/02 09:20:58;;;;;;;15.55;7.82;;;;;;;15.59;46.13;92874.06;4991244;28;20058;-82
2022/05/02 09:24:06;;;;;;;5.55;3.75;;;;;;;16.23;45.43;92865.63;4991557;28;20049;-82
2022/05/02 09:27:13;;;;;;;5.32;2.75;;;;;;;16.75;43.39;92873.59;5005735;28;20049;-84
2022/05/02 09:30:26;;;;;;;3.30;2.67;;;;;;;17.21;42.49;92872.88;5010051;28;20053;-83
2022/05/02 09:33:05;;;;;;;3.70;2.50;;;;;;;17.29;41.48;92830.84;5007975;28;20045;-83
2022/05/02 09:35:53;;;;;;;6.32;2.60;;;;;;;18.07;40.85;92868.91;5008393;28;20382;-83
2022/05/02 09:38:27;;;;;;;5.22;3.40;;;;;;;18.41;41.28;92874.25;5014564;28;20050;-83
2022/05/02 09:41:00;;;;;;;5.65;3.13;;;;;;;18.33;40.43;92806.44;5016273;28;20562;-84
2022/05/02 09:49:53;;;;;;;4.65;3.40;;;;;;;19.02;39.46;92845.56;4991862;28;20104;-83
2022/05/02 09:52:27;;;;;;;4.57;3.55;;;;;;;19.17;40.34;92847.31;5011162;28;20037;-84
2022/05/02 09:58:03;;;;;;;4.03;2.77;;;;;;;19.11;37.94;92874.41;5012590;28;20049;-83
2022/05/02 10:03:36;;;;;;;4.20;3.38;;;;;;;18.54;39.41;92853.91;5015398;28;20048;-83
2022/05/02 10:06:05;;;;;;;5.43;3.13;;;;;;;18.42;39.45;92839.41;5012295;28;20140;-82
2022/05/02 10:08:56;;;;;;;7.32;3.30;;;;;;;18.43;39.70;92838.34;5011541;28;20042;-83
2022/05/02 10:11:44;;;;;;;4.28;2.85;;;;;;;18.24;38.26;92837.41;5009394;28;20567;-83
2022/05/02 10:14:46;;;;;;;4.13;3.42;;;;;;;18.40;39.16;92858.91;5003746;28;20049;-83
2022/05/02 10:17:13;;;;;;;3.88;2.45;;;;;;;17.93;36.80;92843.47;5007823;28;20044;-83
2022/05/02 10:20:04;;;;;;;5.20;3.03;;;;;;;16.95;37.29;92852.09;5008523;28;20048;-83
2022/05/02 10:22:46;;;;;;;4.25;2.65;;;;;;;15.79;39.94;92771.66;5007884;28;20078;-83
2022/05/02 10:25:45;;;;;;;5.95;3.25;;;;;;;16.21;38.54;92815.88;5009153;28;20073;-83
2022/05/02 10:28:57;;;;;;;4.95;2.58;;;;;;;15.84;38.30;92856.34;5006683;28;20048;-84
2022/05/02 10:31:26;;;;;;;2.30;1.70;;;;;;;15.27;38.96;92799.06;5016254;28;20493;-84
2022/05/02 10:33:55;;;;;;;3.65;2.05;;;;;;;15.34;38.06;92847.00;5007740;28;20420;-86
2022/05/02 10:36:28;;;;;;;6.28;3.45;;;;;;;15.18;38.39;92861.59;5019722;28;20473;-84
2022/05/02 10:39:01;;;;;;;3.85;2.40;;;;;;;14.58;39.78;92817.59;5010830;28;20050;-83
2022/05/02 10:41:44;;;;;;;5.82;2.85;;;;;;;14.87;40.36;92845.03;5007145;28;20098;-85
2022/05/02 10:44:15;;;;;;;4.57;2.80;;;;;;;14.91;40.31;92835.78;5034604;28;20049;-81
2022/05/02 10:46:44;;;;;;;3.58;2.35;;;;;;;15.33;40.45;92842.06;5029629;28;20041;-83
2022/05/02 10:49:21;;;;;;;9.30;4.68;;;;;;;15.29;39.99;92815.91;5029817;28;20080;-83
2022/05/02 10:51:56;;;;;;;5.65;3.30;;;;;;;14.47;39.73;92775.38;5035498;28;20132;-84
2022/05/02 10:54:39;;;;;;;4.38;3.22;;;;;;;15.06;40.33;92841.09;5033982;28;20042;-83
2022/05/02 10:57:18;;;;;;;9.05;5.63;;;;;;;15.24;40.02;92828.81;5029825;28;20081;-83
2022/05/02 10:59:52;;;;;;;4.78;3.45;;;;;;;14.85;41.15;92759.94;5029582;28;20046;-83
2022/05/02 11:02:42;;;;;;;3.47;2.85;;;;;;;14.92;41.01;92768.31;5030196;28;20409;-84
2022/05/02 11:05:16;;;;;;;5.50;3.50;;;;;;;15.36;40.27;92837.16;5033936;28;20045;-84
2022/05/02 11:08:09;;;;;;;5.55;3.85;;;;;;;15.37;40.97;92806.91;5033695;28;20087;-84
2022/05/02 11:10:43;;;;;;;4.32;3.20;;;;;;;15.55;41.36;92825.63;5031793;28;20045;-82
2022/05/02 11:13:20;;;;;;;3.33;3.00;;;;;;;15.61;40.30;92817.63;5033366;28;20045;-83
2022/05/02 11:16:01;;;;;;;5.18;2.67;;;;;;;15.28;41.30;92816.91;5033090;28;20132;-83
2022/05/02 11:21:44;;;;;;;6.20;3.72;;;;;;;15.98;41.78;92813.44;5033130;28;20685;-82
2022/05/02 11:24:23;;;;;;;5.50;3.35;;;;;;;16.12;38.52;92784.50;5024087;28;20049;-82
2022/05/02 11:26:53;;;;;;;3.53;2.47;;;;;;;16.20;37.37;92825.44;5033137;28;20072;-82
2022/05/02 11:29:32;;;;;;;3.78;3.00;;;;;;;16.10;38.50;92825.44;5033030;28;20049;-82
2022/05/02 11:32:04;;;;;;;2.85;2.33;;;;;;;15.71;38.29;92831.69;5032925;28;20400;-82
2022/05/02 11:34:41;;;;;;;5.13;3.83;;;;;;;15.88;39.57;92818.56;5032709;28;20052;-82
2022/05/02 11:37:16;;;;;;;5.03;3.33;;;;;;;16.19;40.70;92815.34;5032632;28;20048;-82
2022/05/02 11:39:50;;;;;;;4.63;3.33;;;;;;;16.69;39.30;92826.88;5032895;28;20475;-82
2022/05/02 11:42:22;;;;;;;5.85;3.50;;;;;;;16.59;38.59;92824.28;5032784;28;20453;-82
2022/05/02 11:45:07;;;;;;;3.92;2.85;;;;;;;16.65;38.58;92810.28;5032631;28;20045;-81
2022/05/02 11:47:54;;;;;;;3.30;2.72;;;;;;;16.48;39.01;92820.84;5032591;28;20050;-82
2022/05/02 11:50:23;;;;;;;2.95;2.45;;;;;;;16.05;39.81;92810.63;5032559;28;20180;-81
2022/05/02 11:52:53;;;;;;;6.25;2.97;;;;;;;16.07;39.53;92816.34;5032363;28;20477;-82
2022/05/02 11:55:27;;;;;;;4.18;3.28;;;;;;;16.26;40.27;92814.06;5032347;28;20045;-82
2022/05/02 11:58:01;;;;;;;4.53;3.75;;;;;;;16.52;39.21;92797.81;5032317;28;20045;-82
2022/05/02 12:00:32;;;;;;;19.10;4.53;;;;;;;16.80;40.03;92800.97;5032218;28;20053;-82
2022/05/02 12:03:05;;;;;;;5.45;3.45;;;;;;;16.82;39.08;92775.53;5040349;28;20048;-82
2022/05/02 12:05:36;;;;;;;3.78;3.03;;;;;;;17.21;37.95;92787.22;5052294;28;20045;-81
2022/05/02 12:08:06;;;;;;;5.40;4.10;;;;;;;17.45;39.13;92790.06;5052471;28;20041;-82
2022/05/02 12:10:35;;;;;;;4.00;3.08;;;;;;;17.40;36.63;92787.47;5052265;28;20045;-82
2022/05/02 12:13:03;;;;;;;4.47;3.08;;;;;;;17.27;36.51;92809.53;5051915;28;20045;-82
2022/05/02 12:15:32;;;;;;;3.40;2.85;;;;;;;17.44;36.19;92814.47;5052083;28;20052;-82
2022/05/02 12:18:03;;;;;;;3.28;2.78;;;;;;;17.05;37.84;92789.84;5051924;28;20048;-82
2022/05/02 12:20:32;;;;;;;2.97;2.47;;;;;;;16.05;39.93;92701.06;5052005;28;20040;-83
2022/05/02 12:23:06;;;;;;;5.20;3.30;;;;;;;16.27;39.54;92812.25;5052099;28;20094;-82
2022/05/02 12:25:34;;;;;;;4.00;3.00;;;;;;;15.73;41.31;92765.66;5051725;28;20132;-82
2022/05/02 12:28:04;;;;;;;3.75;3.20;;;;;;;15.63;41.77;92797.47;5052116;28;20442;-83
2022/05/02 12:30:32;;;;;;;6.07;3.30;;;;;;;15.27;43.27;92761.00;5051873;28;20049;-82
2022/05/02 12:33:04;;;;;;;4.88;3.20;;;;;;;15.08;44.58;92745.91;5051845;28;20045;-83
2022/05/02 12:35:37;;;;;;;4.18;3.10;;;;;;;14.42;44.86;92794.22;5052480;28;20060;-84